sensor_id;sensor_type;location;lat;lon;timestamp;P1;P2;P0
56175;PMS5003;63065;51.082;17.016;2023-04-28T00:00:14;78;73;
56175;PMS5003;63065;51.082;17.016;2023-04-28T00:02:40;75;66;
56175;PMS5003;63065;51.082;17.016;2023-04-28T00:05:05;82;70;
56175;PMS5003;63065;51.082;17.016;2023-04-28T00:07:32;81;71;
56175;PMS5003;63065;51.082;17.016;2023-04-28T00:09:57;70;63;
56175;PMS5003;63065;51.082;17.016;2023-04-28T00:12:22;70;69;
56175;PMS5003;63065;51.082;17.016;2023-04-28T00:14:47;70;69;
56175;PMS5003;63065;51.082;17.016;2023-04-28T00:17:13;66;62;
56175;PMS5003;63065;51.082;17.016;2023-04-28T00:19:38;67;65;
56175;PMS5003;63065;51.082;17.016;2023-04-28T00:22:03;72;64;
56175;PMS5003;63065;51.082;17.016;2023-04-28T00:24:29;76;64;
56175;PMS5003;63065;51.082;17.016;2023-04-28T00:26:54;76;68;
56175;PMS5003;63065;51.082;17.016;2023-04-28T00:29:20;69;62;
56175;PMS5003;63065;51.082;17.016;2023-04-28T00:31:45;68;65;
56175;PMS5003;63065;51.082;17.016;2023-04-28T00:34:11;72;66;
56175;PMS5003;63065;51.082;17.016;2023-04-28T00:36:36;73;66;
56175;PMS5003;63065;51.082;17.016;2023-04-28T00:39:02;78;71;
56175;PMS5003;63065;51.082;17.016;2023-04-28T00:41:28;71;65;
56175;PMS5003;63065;51.082;17.016;2023-04-28T00:43:53;78;64;
56175;PMS5003;63065;51.082;17.016;2023-04-28T00:46:20;67;64;
56175;PMS5003;63065;51.082;17.016;2023-04-28T00:48:44;77;65;
56175;PMS5003;63065;51.082;17.016;2023-04-28T00:51:10;70;68;
56175;PMS5003;63065;51.082;17.016;2023-04-28T00:53:36;68;65;
56175;PMS5003;63065;51.082;17.016;2023-04-28T00:56:01;58;53;
56175;PMS5003;63065;51.082;17.016;2023-04-28T00:58:27;71;65;
56175;PMS5003;63065;51.082;17.016;2023-04-28T01:00:52;73;72;
56175;PMS5003;63065;51.082;17.016;2023-04-28T01:03:17;66;61;
56175;PMS5003;63065;51.082;17.016;2023-04-28T01:05:43;74;67;
56175;PMS5003;63065;51.082;17.016;2023-04-28T01:08:08;73;69;
56175;PMS5003;63065;51.082;17.016;2023-04-28T01:10:34;73;68;
56175;PMS5003;63065;51.082;17.016;2023-04-28T01:12:59;72;66;
56175;PMS5003;63065;51.082;17.016;2023-04-28T01:15:25;64;60;
56175;PMS5003;63065;51.082;17.016;2023-04-28T01:17:51;65;63;
56175;PMS5003;63065;51.082;17.016;2023-04-28T01:20:17;68;66;
56175;PMS5003;63065;51.082;17.016;2023-04-28T01:22:42;69;60;
56175;PMS5003;63065;51.082;17.016;2023-04-28T01:25:07;63;60;
56175;PMS5003;63065;51.082;17.016;2023-04-28T01:27:32;72;66;
56175;PMS5003;63065;51.082;17.016;2023-04-28T01:29:58;67;61;
56175;PMS5003;63065;51.082;17.016;2023-04-28T01:32:23;69;67;
56175;PMS5003;63065;51.082;17.016;2023-04-28T01:34:50;66;64;
56175;PMS5003;63065;51.082;17.016;2023-04-28T01:37:15;64;60;
56175;PMS5003;63065;51.082;17.016;2023-04-28T01:39:40;65;59;
56175;PMS5003;63065;51.082;17.016;2023-04-28T01:42:06;62;61;
56175;PMS5003;63065;51.082;17.016;2023-04-28T01:44:30;68;61;
56175;PMS5003;63065;51.082;17.016;2023-04-28T01:46:56;60;55;
56175;PMS5003;63065;51.082;17.016;2023-04-28T01:49:21;63;59;
56175;PMS5003;63065;51.082;17.016;2023-04-28T01:51:46;68;64;
56175;PMS5003;63065;51.082;17.016;2023-04-28T01:54:11;64;59;
56175;PMS5003;63065;51.082;17.016;2023-04-28T01:56:37;66;62;
56175;PMS5003;63065;51.082;17.016;2023-04-28T01:59:02;60;57;
56175;PMS5003;63065;51.082;17.016;2023-04-28T02:01:27;61;57;
56175;PMS5003;63065;51.082;17.016;2023-04-28T02:03:53;59;56;
56175;PMS5003;63065;51.082;17.016;2023-04-28T02:06:18;65;56;
56175;PMS5003;63065;51.082;17.016;2023-04-28T02:08:44;66;59;
56175;PMS5003;63065;51.082;17.016;2023-04-28T02:11:09;57;53;
56175;PMS5003;63065;51.082;17.016;2023-04-28T02:13:34;64;57;
56175;PMS5003;63065;51.082;17.016;2023-04-28T02:16:00;69;59;
56175;PMS5003;63065;51.082;17.016;2023-04-28T02:18:25;57;53;
56175;PMS5003;63065;51.082;17.016;2023-04-28T02:20:51;63;56;
56175;PMS5003;63065;51.082;17.016;2023-04-28T02:23:16;59;57;
56175;PMS5003;63065;51.082;17.016;2023-04-28T02:25:42;61;52;
56175;PMS5003;63065;51.082;17.016;2023-04-28T02:28:07;60;55;
56175;PMS5003;63065;51.082;17.016;2023-04-28T02:30:33;62;55;
56175;PMS5003;63065;51.082;17.016;2023-04-28T02:32:58;63;59;
56175;PMS5003;63065;51.082;17.016;2023-04-28T02:35:24;61;56;
56175;PMS5003;63065;51.082;17.016;2023-04-28T02:37:49;64;62;
56175;PMS5003;63065;51.082;17.016;2023-04-28T02:40:15;59;54;
56175;PMS5003;63065;51.082;17.016;2023-04-28T02:42:40;59;53;
56175;PMS5003;63065;51.082;17.016;2023-04-28T02:45:05;62;61;
56175;PMS5003;63065;51.082;17.016;2023-04-28T02:47:30;58;56;
56175;PMS5003;63065;51.082;17.016;2023-04-28T02:49:55;60;56;
56175;PMS5003;63065;51.082;17.016;2023-04-28T02:52:21;56;54;
56175;PMS5003;63065;51.082;17.016;2023-04-28T02:54:46;63;58;
56175;PMS5003;63065;51.082;17.016;2023-04-28T02:57:12;58;54;
56175;PMS5003;63065;51.082;17.016;2023-04-28T02:59:38;55;52;
56175;PMS5003;63065;51.082;17.016;2023-04-28T03:02:03;63;55;
56175;PMS5003;63065;51.082;17.016;2023-04-28T03:04:29;54;50;
56175;PMS5003;63065;51.082;17.016;2023-04-28T03:06:54;61;57;
56175;PMS5003;63065;51.082;17.016;2023-04-28T03:09:20;65;62;
56175;PMS5003;63065;51.082;17.016;2023-04-28T03:11:45;59;56;
56175;PMS5003;63065;51.082;17.016;2023-04-28T03:14:10;59;55;
56175;PMS5003;63065;51.082;17.016;2023-04-28T03:16:36;60;56;
56175;PMS5003;63065;51.082;17.016;2023-04-28T03:19:01;65;64;
56175;PMS5003;63065;51.082;17.016;2023-04-28T03:21:26;63;57;
56175;PMS5003;63065;51.082;17.016;2023-04-28T03:23:52;61;57;
56175;PMS5003;63065;51.082;17.016;2023-04-28T03:26:17;59;53;
56175;PMS5003;63065;51.082;17.016;2023-04-28T03:28:43;72;69;
56175;PMS5003;63065;51.082;17.016;2023-04-28T03:31:08;79;72;
56175;PMS5003;63065;51.082;17.016;2023-04-28T03:33:34;67;62;
56175;PMS5003;63065;51.082;17.016;2023-04-28T03:36:01;73;65;
56175;PMS5003;63065;51.082;17.016;2023-04-28T03:38:25;66;61;
56175;PMS5003;63065;51.082;17.016;2023-04-28T03:40:51;68;64;
56175;PMS5003;63065;51.082;17.016;2023-04-28T03:43:17;70;65;
56175;PMS5003;63065;51.082;17.016;2023-04-28T03:45:42;74;65;
56175;PMS5003;63065;51.082;17.016;2023-04-28T03:48:07;78;69;
56175;PMS5003;63065;51.082;17.016;2023-04-28T03:50:32;81;75;
56175;PMS5003;63065;51.082;17.016;2023-04-28T03:52:58;77;70;
56175;PMS5003;63065;51.082;17.016;2023-04-28T03:55:29;66;63;
56175;PMS5003;63065;51.082;17.016;2023-04-28T03:57:50;82;73;
56175;PMS5003;63065;51.082;17.016;2023-04-28T04:00:15;77;75;
56175;PMS5003;63065;51.082;17.016;2023-04-28T04:02:41;64;64;
56175;PMS5003;63065;51.082;17.016;2023-04-28T04:05:06;70;66;
56175;PMS5003;63065;51.082;17.016;2023-04-28T04:07:32;79;75;
56175;PMS5003;63065;51.082;17.016;2023-04-28T04:09:57;73;70;
56175;PMS5003;63065;51.082;17.016;2023-04-28T04:12:22;81;71;
56175;PMS5003;63065;51.082;17.016;2023-04-28T04:14:48;81;75;
56175;PMS5003;63065;51.082;17.016;2023-04-28T04:17:13;88;76;
56175;PMS5003;63065;51.082;17.016;2023-04-28T04:19:38;76;71;
56175;PMS5003;63065;51.082;17.016;2023-04-28T04:22:04;77;67;
56175;PMS5003;63065;51.082;17.016;2023-04-28T04:24:29;75;70;
56175;PMS5003;63065;51.082;17.016;2023-04-28T04:26:55;72;66;
56175;PMS5003;63065;51.082;17.016;2023-04-28T04:29:21;74;74;
56175;PMS5003;63065;51.082;17.016;2023-04-28T04:31:46;78;69;
56175;PMS5003;63065;51.082;17.016;2023-04-28T04:34:11;75;73;
56175;PMS5003;63065;51.082;17.016;2023-04-28T04:36:37;82;75;
56175;PMS5003;63065;51.082;17.016;2023-04-28T04:39:02;79;73;
56175;PMS5003;63065;51.082;17.016;2023-04-28T04:41:28;72;68;
56175;PMS5003;63065;51.082;17.016;2023-04-28T04:43:53;79;69;
56175;PMS5003;63065;51.082;17.016;2023-04-28T04:46:18;74;67;
56175;PMS5003;63065;51.082;17.016;2023-04-28T04:48:43;78;73;
56175;PMS5003;63065;51.082;17.016;2023-04-28T04:51:08;86;75;
56175;PMS5003;63065;51.082;17.016;2023-04-28T04:53:34;75;73;
56175;PMS5003;63065;51.082;17.016;2023-04-28T04:56:00;76;70;
56175;PMS5003;63065;51.082;17.016;2023-04-28T04:58:25;74;72;
56175;PMS5003;63065;51.082;17.016;2023-04-28T05:00:51;75;68;
56175;PMS5003;63065;51.082;17.016;2023-04-28T05:03:17;79;71;
56175;PMS5003;63065;51.082;17.016;2023-04-28T05:05:42;80;76;
56175;PMS5003;63065;51.082;17.016;2023-04-28T05:08:07;71;63;
56175;PMS5003;63065;51.082;17.016;2023-04-28T05:10:33;70;66;
56175;PMS5003;63065;51.082;17.016;2023-04-28T05:12:58;79;75;
56175;PMS5003;63065;51.082;17.016;2023-04-28T05:15:24;79;75;
56175;PMS5003;63065;51.082;17.016;2023-04-28T05:17:50;77;75;
56175;PMS5003;63065;51.082;17.016;2023-04-28T05:20:15;82;73;
56175;PMS5003;63065;51.082;17.016;2023-04-28T05:22:40;78;69;
56175;PMS5003;63065;51.082;17.016;2023-04-28T05:25:06;79;73;
56175;PMS5003;63065;51.082;17.016;2023-04-28T05:27:31;86;75;
56175;PMS5003;63065;51.082;17.016;2023-04-28T05:29:57;69;65;
56175;PMS5003;63065;51.082;17.016;2023-04-28T05:32:22;76;71;
56175;PMS5003;63065;51.082;17.016;2023-04-28T05:34:48;74;69;
56175;PMS5003;63065;51.082;17.016;2023-04-28T05:37:14;73;68;
56175;PMS5003;63065;51.082;17.016;2023-04-28T05:39:39;76;67;
56175;PMS5003;63065;51.082;17.016;2023-04-28T05:42:04;65;62;
56175;PMS5003;63065;51.082;17.016;2023-04-28T05:44:30;68;65;
56175;PMS5003;63065;51.082;17.016;2023-04-28T05:46:55;70;64;
56175;PMS5003;63065;51.082;17.016;2023-04-28T05:49:21;66;63;
56175;PMS5003;63065;51.082;17.016;2023-04-28T05:51:46;68;62;
56175;PMS5003;63065;51.082;17.016;2023-04-28T05:54:12;67;62;
56175;PMS5003;63065;51.082;17.016;2023-04-28T05:56:37;72;68;
56175;PMS5003;63065;51.082;17.016;2023-04-28T05:59:02;72;68;
56175;PMS5003;63065;51.082;17.016;2023-04-28T06:01:28;67;63;
56175;PMS5003;63065;51.082;17.016;2023-04-28T06:03:54;72;68;
56175;PMS5003;63065;51.082;17.016;2023-04-28T06:06:19;73;67;
56175;PMS5003;63065;51.082;17.016;2023-04-28T06:08:45;64;62;
56175;PMS5003;63065;51.082;17.016;2023-04-28T06:11:11;63;59;
56175;PMS5003;63065;51.082;17.016;2023-04-28T06:13:36;72;64;
56175;PMS5003;63065;51.082;17.016;2023-04-28T06:16:01;69;67;
56175;PMS5003;63065;51.082;17.016;2023-04-28T06:18:28;71;66;
56175;PMS5003;63065;51.082;17.016;2023-04-28T06:20:52;67;63;
56175;PMS5003;63065;51.082;17.016;2023-04-28T06:23:17;67;66;
56175;PMS5003;63065;51.082;17.016;2023-04-28T06:25:43;67;62;
56175;PMS5003;63065;51.082;17.016;2023-04-28T06:28:09;63;61;
56175;PMS5003;63065;51.082;17.016;2023-04-28T06:30:34;68;63;
56175;PMS5003;63065;51.082;17.016;2023-04-28T06:33:00;65;60;
56175;PMS5003;63065;51.082;17.016;2023-04-28T06:35:25;58;56;
56175;PMS5003;63065;51.082;17.016;2023-04-28T06:37:51;55;53;
56175;PMS5003;63065;51.082;17.016;2023-04-28T06:40:16;75;63;
56175;PMS5003;63065;51.082;17.016;2023-04-28T06:42:41;64;57;
56175;PMS5003;63065;51.082;17.016;2023-04-28T06:45:07;64;58;
56175;PMS5003;63065;51.082;17.016;2023-04-28T06:47:32;62;60;
56175;PMS5003;63065;51.082;17.016;2023-04-28T06:49:58;61;58;
56175;PMS5003;63065;51.082;17.016;2023-04-28T06:52:23;54;51;
56175;PMS5003;63065;51.082;17.016;2023-04-28T06:54:49;62;60;
56175;PMS5003;63065;51.082;17.016;2023-04-28T06:57:15;59;54;
56175;PMS5003;63065;51.082;17.016;2023-04-28T06:59:40;56;51;
56175;PMS5003;63065;51.082;17.016;2023-04-28T07:02:05;61;55;
56175;PMS5003;63065;51.082;17.016;2023-04-28T07:04:31;54;51;
56175;PMS5003;63065;51.082;17.016;2023-04-28T07:06:57;57;48;
56175;PMS5003;63065;51.082;17.016;2023-04-28T07:09:22;51;51;
56175;PMS5003;63065;51.082;17.016;2023-04-28T07:11:49;57;54;
56175;PMS5003;63065;51.082;17.016;2023-04-28T07:14:13;60;55;
56175;PMS5003;63065;51.082;17.016;2023-04-28T07:16:39;60;56;
56175;PMS5003;63065;51.082;17.016;2023-04-28T07:19:05;60;56;
56175;PMS5003;63065;51.082;17.016;2023-04-28T07:21:30;53;51;
56175;PMS5003;63065;51.082;17.016;2023-04-28T07:23:56;50;49;
56175;PMS5003;63065;51.082;17.016;2023-04-28T07:26:21;65;58;
56175;PMS5003;63065;51.082;17.016;2023-04-28T07:28:46;63;56;
56175;PMS5003;63065;51.082;17.016;2023-04-28T07:31:12;57;55;
56175;PMS5003;63065;51.082;17.016;2023-04-28T07:33:37;56;52;
56175;PMS5003;63065;51.082;17.016;2023-04-28T07:36:02;44;43;
56175;PMS5003;63065;51.082;17.016;2023-04-28T07:38:28;51;49;
56175;PMS5003;63065;51.082;17.016;2023-04-28T07:40:53;53;49;
56175;PMS5003;63065;51.082;17.016;2023-04-28T07:43:19;58;54;
56175;PMS5003;63065;51.082;17.016;2023-04-28T07:45:44;60;54;
56175;PMS5003;63065;51.082;17.016;2023-04-28T07:48:09;49;46;
56175;PMS5003;63065;51.082;17.016;2023-04-28T07:50:34;51;48;
56175;PMS5003;63065;51.082;17.016;2023-04-28T07:53:00;53;49;
56175;PMS5003;63065;51.082;17.016;2023-04-28T07:55:26;54;50;
56175;PMS5003;63065;51.082;17.016;2023-04-28T07:57:51;46;43;
56175;PMS5003;63065;51.082;17.016;2023-04-28T08:00:17;39;39;
56175;PMS5003;63065;51.082;17.016;2023-04-28T08:02:42;42;41;
56175;PMS5003;63065;51.082;17.016;2023-04-28T08:07:33;39;38;
56175;PMS5003;63065;51.082;17.016;2023-04-28T08:09:59;44;42;
56175;PMS5003;63065;51.082;17.016;2023-04-28T08:12:25;33;32;
56175;PMS5003;63065;51.082;17.016;2023-04-28T08:14:50;32;31;
56175;PMS5003;63065;51.082;17.016;2023-04-28T08:17:16;35;35;
56175;PMS5003;63065;51.082;17.016;2023-04-28T08:19:40;41;40;
56175;PMS5003;63065;51.082;17.016;2023-04-28T08:22:06;38;35;
56175;PMS5003;63065;51.082;17.016;2023-04-28T08:24:32;44;35;
56175;PMS5003;63065;51.082;17.016;2023-04-28T08:26:57;40;36;
56175;PMS5003;63065;51.082;17.016;2023-04-28T08:29:22;41;39;
56175;PMS5003;63065;51.082;17.016;2023-04-28T08:31:48;37;34;
56175;PMS5003;63065;51.082;17.016;2023-04-28T08:34:14;30;29;
56175;PMS5003;63065;51.082;17.016;2023-04-28T08:36:39;22;22;
56175;PMS5003;63065;51.082;17.016;2023-04-28T08:39:05;35;32;
56175;PMS5003;63065;51.082;17.016;2023-04-28T08:41:31;29;29;
56175;PMS5003;63065;51.082;17.016;2023-04-28T08:43:56;34;30;
56175;PMS5003;63065;51.082;17.016;2023-04-28T08:46:21;26;23;
56175;PMS5003;63065;51.082;17.016;2023-04-28T08:48:46;25;24;
56175;PMS5003;63065;51.082;17.016;2023-04-28T08:51:14;28;27;
56175;PMS5003;63065;51.082;17.016;2023-04-28T08:53:38;24;22;
56175;PMS5003;63065;51.082;17.016;2023-04-28T08:56:04;29;27;
56175;PMS5003;63065;51.082;17.016;2023-04-28T08:58:29;30;29;
56175;PMS5003;63065;51.082;17.016;2023-04-28T09:00:54;28;26;
56175;PMS5003;63065;51.082;17.016;2023-04-28T09:03:20;26;26;
56175;PMS5003;63065;51.082;17.016;2023-04-28T09:05:46;22;22;
56175;PMS5003;63065;51.082;17.016;2023-04-28T09:08:11;24;23;
56175;PMS5003;63065;51.082;17.016;2023-04-28T09:10:37;27;26;
56175;PMS5003;63065;51.082;17.016;2023-04-28T09:13:02;30;30;
56175;PMS5003;63065;51.082;17.016;2023-04-28T09:15:29;34;32;
56175;PMS5003;63065;51.082;17.016;2023-04-28T09:17:54;30;27;
56175;PMS5003;63065;51.082;17.016;2023-04-28T09:20:20;34;31;
56175;PMS5003;63065;51.082;17.016;2023-04-28T09:22:45;25;23;
56175;PMS5003;63065;51.082;17.016;2023-04-28T09:25:11;31;29;
56175;PMS5003;63065;51.082;17.016;2023-04-28T09:27:36;28;26;
56175;PMS5003;63065;51.082;17.016;2023-04-28T09:30:01;28;25;
56175;PMS5003;63065;51.082;17.016;2023-04-28T09:32:27;30;26;
56175;PMS5003;63065;51.082;17.016;2023-04-28T09:34:53;32;29;
56175;PMS5003;63065;51.082;17.016;2023-04-28T09:37:19;26;25;
56175;PMS5003;63065;51.082;17.016;2023-04-28T09:39:44;23;23;
56175;PMS5003;63065;51.082;17.016;2023-04-28T09:42:09;26;25;
56175;PMS5003;63065;51.082;17.016;2023-04-28T09:44:35;26;25;
56175;PMS5003;63065;51.082;17.016;2023-04-28T09:47:00;30;28;
56175;PMS5003;63065;51.082;17.016;2023-04-28T09:49:25;27;23;
56175;PMS5003;63065;51.082;17.016;2023-04-28T09:51:51;27;26;
56175;PMS5003;63065;51.082;17.016;2023-04-28T09:54:16;26;25;
56175;PMS5003;63065;51.082;17.016;2023-04-28T09:56:42;26;23;
56175;PMS5003;63065;51.082;17.016;2023-04-28T09:59:07;25;25;
56175;PMS5003;63065;51.082;17.016;2023-04-28T10:01:36;22;22;
56175;PMS5003;63065;51.082;17.016;2023-04-28T10:03:59;28;25;
56175;PMS5003;63065;51.082;17.016;2023-04-28T10:06:25;24;23;
56175;PMS5003;63065;51.082;17.016;2023-04-28T10:08:51;26;23;
56175;PMS5003;63065;51.082;17.016;2023-04-28T10:11:16;21;21;
56175;PMS5003;63065;51.082;17.016;2023-04-28T10:13:43;24;23;
56175;PMS5003;63065;51.082;17.016;2023-04-28T10:16:08;22;20;
56175;PMS5003;63065;51.082;17.016;2023-04-28T10:18:33;24;22;
56175;PMS5003;63065;51.082;17.016;2023-04-28T10:20:59;24;20;
56175;PMS5003;63065;51.082;17.016;2023-04-28T10:23:30;21;20;
56175;PMS5003;63065;51.082;17.016;2023-04-28T10:25:51;19;17;
56175;PMS5003;63065;51.082;17.016;2023-04-28T10:28:14;24;22;
56175;PMS5003;63065;51.082;17.016;2023-04-28T10:30:40;21;18;
56175;PMS5003;63065;51.082;17.016;2023-04-28T10:42:51;17;16;
56175;PMS5003;63065;51.082;17.016;2023-04-28T10:45:13;20;19;
56175;PMS5003;63065;51.082;17.016;2023-04-28T10:50:06;22;20;
56175;PMS5003;63065;51.082;17.016;2023-04-28T10:57:20;16;16;
56175;PMS5003;63065;51.082;17.016;2023-04-28T10:59:45;18;18;
56175;PMS5003;63065;51.082;17.016;2023-04-28T11:04:40;17;16;
56175;PMS5003;63065;51.082;17.016;2023-04-28T11:16:47;17;16;
56175;PMS5003;63065;51.082;17.016;2023-04-28T11:19:08;15;15;
56175;PMS5003;63065;51.082;17.016;2023-04-28T11:21:34;12;11;
56175;PMS5003;63065;51.082;17.016;2023-04-28T11:24:00;14;14;
56175;PMS5003;63065;51.082;17.016;2023-04-28T11:26:26;14;14;
56175;PMS5003;63065;51.082;17.016;2023-04-28T11:28:52;16;15;
56175;PMS5003;63065;51.082;17.016;2023-04-28T11:31:17;18;18;
56175;PMS5003;63065;51.082;17.016;2023-04-28T11:33:42;15;15;
56175;PMS5003;63065;51.082;17.016;2023-04-28T11:36:09;18;14;
56175;PMS5003;63065;51.082;17.016;2023-04-28T11:40:59;12;12;
56175;PMS5003;63065;51.082;17.016;2023-04-28T11:43:27;16;12;
56175;PMS5003;63065;51.082;17.016;2023-04-28T11:45:50;16;16;
56175;PMS5003;63065;51.082;17.016;2023-04-28T11:48:20;18;13;
56175;PMS5003;63065;51.082;17.016;2023-04-28T11:50:41;19;15;
56175;PMS5003;63065;51.082;17.016;2023-04-28T11:53:06;12;12;
56175;PMS5003;63065;51.082;17.016;2023-04-28T11:55:32;13;13;
56175;PMS5003;63065;51.082;17.016;2023-04-28T12:00:24;15;13;
56175;PMS5003;63065;51.082;17.016;2023-04-28T12:02:49;16;15;
56175;PMS5003;63065;51.082;17.016;2023-04-28T12:05:14;19;17;
56175;PMS5003;63065;51.082;17.016;2023-04-28T12:07:40;14;14;
56175;PMS5003;63065;51.082;17.016;2023-04-28T12:10:09;9;9;
56175;PMS5003;63065;51.082;17.016;2023-04-28T12:12:31;11;9;
56175;PMS5003;63065;51.082;17.016;2023-04-28T12:14:56;12;12;
56175;PMS5003;63065;51.082;17.016;2023-04-28T12:17:22;11;11;
56175;PMS5003;63065;51.082;17.016;2023-04-28T12:19:48;11;10;
56175;PMS5003;63065;51.082;17.016;2023-04-28T12:22:13;9;9;
56175;PMS5003;63065;51.082;17.016;2023-04-28T12:24:39;11;11;
56175;PMS5003;63065;51.082;17.016;2023-04-28T12:29:34;11;10;
56175;PMS5003;63065;51.082;17.016;2023-04-28T12:31:56;10;9;
56175;PMS5003;63065;51.082;17.016;2023-04-28T12:34:22;9;9;
56175;PMS5003;63065;51.082;17.016;2023-04-28T12:36:48;10;10;
56175;PMS5003;63065;51.082;17.016;2023-04-28T12:39:13;9;9;
56175;PMS5003;63065;51.082;17.016;2023-04-28T12:41:39;9;8;
56175;PMS5003;63065;51.082;17.016;2023-04-28T12:44:05;6;6;
56175;PMS5003;63065;51.082;17.016;2023-04-28T12:46:30;11;11;
56175;PMS5003;63065;51.082;17.016;2023-04-28T12:48:56;9;8;
56175;PMS5003;63065;51.082;17.016;2023-04-28T12:51:22;13;11;
56175;PMS5003;63065;51.082;17.016;2023-04-28T12:53:47;7;6;
56175;PMS5003;63065;51.082;17.016;2023-04-28T12:56:14;12;12;
56175;PMS5003;63065;51.082;17.016;2023-04-28T12:58:39;10;9;
56175;PMS5003;63065;51.082;17.016;2023-04-28T13:01:05;11;11;
56175;PMS5003;63065;51.082;17.016;2023-04-28T13:03:30;11;11;
56175;PMS5003;63065;51.082;17.016;2023-04-28T13:05:56;15;13;
56175;PMS5003;63065;51.082;17.016;2023-04-28T13:08:22;11;11;
56175;PMS5003;63065;51.082;17.016;2023-04-28T13:10:48;14;13;
56175;PMS5003;63065;51.082;17.016;2023-04-28T13:13:13;10;10;
56175;PMS5003;63065;51.082;17.016;2023-04-28T13:15:39;7;7;
56175;PMS5003;63065;51.082;17.016;2023-04-28T13:18:05;11;10;
56175;PMS5003;63065;51.082;17.016;2023-04-28T13:20:30;12;12;
56175;PMS5003;63065;51.082;17.016;2023-04-28T13:22:56;11;11;
56175;PMS5003;63065;51.082;17.016;2023-04-28T13:25:22;12;9;
56175;PMS5003;63065;51.082;17.016;2023-04-28T13:27:47;10;10;
56175;PMS5003;63065;51.082;17.016;2023-04-28T13:30:13;10;10;
56175;PMS5003;63065;51.082;17.016;2023-04-28T13:32:39;12;11;
56175;PMS5003;63065;51.082;17.016;2023-04-28T13:35:05;9;9;
56175;PMS5003;63065;51.082;17.016;2023-04-28T13:37:31;10;10;
56175;PMS5003;63065;51.082;17.016;2023-04-28T13:39:56;13;10;
56175;PMS5003;63065;51.082;17.016;2023-04-28T13:42:21;11;11;
56175;PMS5003;63065;51.082;17.016;2023-04-28T13:44:47;11;10;
56175;PMS5003;63065;51.082;17.016;2023-04-28T13:47:13;12;10;
56175;PMS5003;63065;51.082;17.016;2023-04-28T13:49:38;7;7;
56175;PMS5003;63065;51.082;17.016;2023-04-28T13:52:04;11;11;
56175;PMS5003;63065;51.082;17.016;2023-04-28T13:54:30;8;8;
56175;PMS5003;63065;51.082;17.016;2023-04-28T13:56:56;7;7;
56175;PMS5003;63065;51.082;17.016;2023-04-28T13:59:21;14;14;
56175;PMS5003;63065;51.082;17.016;2023-04-28T14:01:46;8;8;
56175;PMS5003;63065;51.082;17.016;2023-04-28T14:04:12;8;8;
56175;PMS5003;63065;51.082;17.016;2023-04-28T14:06:38;7;7;
56175;PMS5003;63065;51.082;17.016;2023-04-28T14:09:04;8;8;
56175;PMS5003;63065;51.082;17.016;2023-04-28T14:11:30;8;8;
56175;PMS5003;63065;51.082;17.016;2023-04-28T14:13:55;7;7;
56175;PMS5003;63065;51.082;17.016;2023-04-28T14:16:21;7;7;
56175;PMS5003;63065;51.082;17.016;2023-04-28T14:18:47;9;9;
56175;PMS5003;63065;51.082;17.016;2023-04-28T14:21:12;10;10;
56175;PMS5003;63065;51.082;17.016;2023-04-28T14:23:38;7;7;
56175;PMS5003;63065;51.082;17.016;2023-04-28T14:26:04;10;9;
56175;PMS5003;63065;51.082;17.016;2023-04-28T14:28:29;13;12;
56175;PMS5003;63065;51.082;17.016;2023-04-28T14:30:54;10;9;
56175;PMS5003;63065;51.082;17.016;2023-04-28T14:33:19;11;11;
56175;PMS5003;63065;51.082;17.016;2023-04-28T14:35:45;10;10;
56175;PMS5003;63065;51.082;17.016;2023-04-28T14:38:11;10;10;
56175;PMS5003;63065;51.082;17.016;2023-04-28T14:40:36;10;10;
56175;PMS5003;63065;51.082;17.016;2023-04-28T14:43:02;8;8;
56175;PMS5003;63065;51.082;17.016;2023-04-28T14:45:27;11;10;
56175;PMS5003;63065;51.082;17.016;2023-04-28T14:47:53;10;7;
56175;PMS5003;63065;51.082;17.016;2023-04-28T14:50:18;12;9;
56175;PMS5003;63065;51.082;17.016;2023-04-28T14:52:44;10;9;
56175;PMS5003;63065;51.082;17.016;2023-04-28T14:55:10;11;10;
56175;PMS5003;63065;51.082;17.016;2023-04-28T14:57:35;9;9;
56175;PMS5003;63065;51.082;17.016;2023-04-28T15:00:01;6;6;
56175;PMS5003;63065;51.082;17.016;2023-04-28T15:02:26;9;9;
56175;PMS5003;63065;51.082;17.016;2023-04-28T15:04:52;10;9;
56175;PMS5003;63065;51.082;17.016;2023-04-28T15:07:18;9;8;
56175;PMS5003;63065;51.082;17.016;2023-04-28T15:09:44;8;8;
56175;PMS5003;63065;51.082;17.016;2023-04-28T15:12:09;12;11;
56175;PMS5003;63065;51.082;17.016;2023-04-28T15:14:35;12;9;
56175;PMS5003;63065;51.082;17.016;2023-04-28T15:17:01;10;10;
56175;PMS5003;63065;51.082;17.016;2023-04-28T15:19:26;10;10;
56175;PMS5003;63065;51.082;17.016;2023-04-28T15:21:52;9;7;
56175;PMS5003;63065;51.082;17.016;2023-04-28T15:24:18;7;7;
56175;PMS5003;63065;51.082;17.016;2023-04-28T15:26:43;12;12;
56175;PMS5003;63065;51.082;17.016;2023-04-28T15:29:09;11;11;
56175;PMS5003;63065;51.082;17.016;2023-04-28T15:31:34;13;11;
56175;PMS5003;63065;51.082;17.016;2023-04-28T15:34:00;12;11;
56175;PMS5003;63065;51.082;17.016;2023-04-28T15:36:26;15;14;
56175;PMS5003;63065;51.082;17.016;2023-04-28T15:38:52;11;9;
56175;PMS5003;63065;51.082;17.016;2023-04-28T15:41:17;10;10;
56175;PMS5003;63065;51.082;17.016;2023-04-28T15:43:43;11;11;
56175;PMS5003;63065;51.082;17.016;2023-04-28T15:46:09;11;11;
56175;PMS5003;63065;51.082;17.016;2023-04-28T15:48:34;11;11;
56175;PMS5003;63065;51.082;17.016;2023-04-28T15:51:00;9;9;
56175;PMS5003;63065;51.082;17.016;2023-04-28T15:53:25;13;12;
56175;PMS5003;63065;51.082;17.016;2023-04-28T15:55:51;10;10;
56175;PMS5003;63065;51.082;17.016;2023-04-28T15:58:16;9;9;
56175;PMS5003;63065;51.082;17.016;2023-04-28T16:00:42;10;9;
56175;PMS5003;63065;51.082;17.016;2023-04-28T16:03:08;14;13;
56175;PMS5003;63065;51.082;17.016;2023-04-28T16:05:33;11;10;
56175;PMS5003;63065;51.082;17.016;2023-04-28T16:07:59;11;11;
56175;PMS5003;63065;51.082;17.016;2023-04-28T16:10:25;12;12;
56175;PMS5003;63065;51.082;17.016;2023-04-28T16:12:51;12;12;
56175;PMS5003;63065;51.082;17.016;2023-04-28T16:15:16;13;13;
56175;PMS5003;63065;51.082;17.016;2023-04-28T16:17:42;10;10;
56175;PMS5003;63065;51.082;17.016;2023-04-28T16:20:09;15;12;
56175;PMS5003;63065;51.082;17.016;2023-04-28T16:22:34;10;10;
56175;PMS5003;63065;51.082;17.016;2023-04-28T16:24:59;11;10;
56175;PMS5003;63065;51.082;17.016;2023-04-28T16:27:25;10;10;
56175;PMS5003;63065;51.082;17.016;2023-04-28T16:29:51;10;9;